East Millsboro, Pennsylvania
Current Conditions -  °F | °C
As of 5:15 PM on Wednesday 28 Jan 2015 (Local Time) from KAFJ Reporting Station
Clear Clear  
Wind Chill: 23°   Ceiling: Unl
Heat Index: 23°   Visibility: 10mi
Dew Point: 10°   Wind: 0mph
Humidity: 59%   Direction: NA
Pressure: 30.32"   Gusts: NA
Location:  39.98°N, 79.99°W
Report Text: KAFJ 282215Z AUTO 00000KT 10SM CLR M05/M12 A3032 RMK AO1
Loading
Personal Weather Stations






























Interactive Weather Map New forecast layout! Learn more

10-Day Weather Forecast

Advertisements
Track Severe Weather on mobile